sensor_id;sensor_type;location;lat;lon;timestamp;P1;durP1;ratioP1;P2;durP2;ratioP2
11139;SDS011;5624;49.388;11.350;2022-07-23T00:01:32;11.07;;;7.65;;
11139;SDS011;5624;49.388;11.350;2022-07-23T00:03:58;8.82;;;7.63;;
11139;SDS011;5624;49.388;11.350;2022-07-23T00:06:24;8.90;;;7.43;;
11139;SDS011;5624;49.388;11.350;2022-07-23T00:08:50;9.52;;;8.27;;
11139;SDS011;5624;49.388;11.350;2022-07-23T00:11:16;9.90;;;8.23;;
11139;SDS011;5624;49.388;11.350;2022-07-23T00:13:42;9.70;;;8.07;;
11139;SDS011;5624;49.388;11.350;2022-07-23T00:16:08;9.05;;;7.90;;
11139;SDS011;5624;49.388;11.350;2022-07-23T00:18:34;8.65;;;7.60;;
11139;SDS011;5624;49.388;11.350;2022-07-23T00:20:59;8.75;;;7.22;;
11139;SDS011;5624;49.388;11.350;2022-07-23T00:23:25;9.38;;;7.40;;
11139;SDS011;5624;49.388;11.350;2022-07-23T00:25:53;8.73;;;7.53;;
11139;SDS011;5624;49.388;11.350;2022-07-23T00:28:19;10.55;;;8.00;;
11139;SDS011;5624;49.388;11.350;2022-07-23T00:30:44;9.07;;;7.63;;
11139;SDS011;5624;49.388;11.350;2022-07-23T00:33:10;8.98;;;7.68;;
11139;SDS011;5624;49.388;11.350;2022-07-23T00:35:37;9.38;;;7.78;;
11139;SDS011;5624;49.388;11.350;2022-07-23T00:38:06;7.80;;;7.00;;
11139;SDS011;5624;49.388;11.350;2022-07-23T00:40:32;7.75;;;6.95;;
11139;SDS011;5624;49.388;11.350;2022-07-23T00:42:59;12.27;;;7.80;;
11139;SDS011;5624;49.388;11.350;2022-07-23T00:45:25;10.77;;;7.65;;
11139;SDS011;5624;49.388;11.350;2022-07-23T00:47:51;7.95;;;7.15;;
11139;SDS011;5624;49.388;11.350;2022-07-23T00:50:17;8.48;;;7.57;;
11139;SDS011;5624;49.388;11.350;2022-07-23T00:52:42;8.55;;;7.70;;
11139;SDS011;5624;49.388;11.350;2022-07-23T00:55:09;8.25;;;7.25;;
11139;SDS011;5624;49.388;11.350;2022-07-23T00:57:36;9.13;;;8.13;;
11139;SDS011;5624;49.388;11.350;2022-07-23T01:00:03;11.52;;;8.85;;
11139;SDS011;5624;49.388;11.350;2022-07-23T01:02:30;8.43;;;7.30;;
11139;SDS011;5624;49.388;11.350;2022-07-23T01:04:56;9.93;;;7.50;;
11139;SDS011;5624;49.388;11.350;2022-07-23T01:07:22;11.48;;;7.55;;
11139;SDS011;5624;49.388;11.350;2022-07-23T01:09:48;10.95;;;7.35;;
11139;SDS011;5624;49.388;11.350;2022-07-23T01:12:15;9.20;;;7.97;;
11139;SDS011;5624;49.388;11.350;2022-07-23T01:14:41;8.75;;;7.75;;
11139;SDS011;5624;49.388;11.350;2022-07-23T01:17:07;8.98;;;8.07;;
11139;SDS011;5624;49.388;11.350;2022-07-23T01:19:32;8.88;;;7.32;;
11139;SDS011;5624;49.388;11.350;2022-07-23T01:21:58;8.82;;;7.93;;
11139;SDS011;5624;49.388;11.350;2022-07-23T01:24:27;8.52;;;7.68;;
11139;SDS011;5624;49.388;11.350;2022-07-23T01:26:53;11.65;;;8.43;;
11139;SDS011;5624;49.388;11.350;2022-07-23T01:29:19;10.57;;;8.02;;
11139;SDS011;5624;49.388;11.350;2022-07-23T01:31:46;11.38;;;8.80;;
11139;SDS011;5624;49.388;11.350;2022-07-23T01:34:12;8.95;;;8.00;;
11139;SDS011;5624;49.388;11.350;2022-07-23T01:36:38;8.93;;;7.60;;
11139;SDS011;5624;49.388;11.350;2022-07-23T01:39:05;11.10;;;7.80;;
11139;SDS011;5624;49.388;11.350;2022-07-23T01:41:32;10.50;;;8.10;;
11139;SDS011;5624;49.388;11.350;2022-07-23T01:43:58;8.95;;;7.75;;
11139;SDS011;5624;49.388;11.350;2022-07-23T01:46:24;10.48;;;7.95;;
11139;SDS011;5624;49.388;11.350;2022-07-23T01:48:50;9.68;;;7.90;;
11139;SDS011;5624;49.388;11.350;2022-07-23T01:51:15;9.15;;;8.23;;
11139;SDS011;5624;49.388;11.350;2022-07-23T01:53:41;12.43;;;7.78;;
11139;SDS011;5624;49.388;11.350;2022-07-23T01:56:07;9.63;;;7.47;;
11139;SDS011;5624;49.388;11.350;2022-07-23T01:58:32;9.13;;;8.23;;
11139;SDS011;5624;49.388;11.350;2022-07-23T02:00:58;9.02;;;8.05;;
11139;SDS011;5624;49.388;11.350;2022-07-23T02:03:24;10.40;;;8.80;;
11139;SDS011;5624;49.388;11.350;2022-07-23T02:05:50;10.65;;;8.65;;
11139;SDS011;5624;49.388;11.350;2022-07-23T02:08:16;10.00;;;9.00;;
11139;SDS011;5624;49.388;11.350;2022-07-23T02:10:42;9.60;;;8.60;;
11139;SDS011;5624;49.388;11.350;2022-07-23T02:13:09;10.40;;;9.40;;
11139;SDS011;5624;49.388;11.350;2022-07-23T02:15:35;10.18;;;9.18;;
11139;SDS011;5624;49.388;11.350;2022-07-23T02:18:01;11.32;;;8.35;;
11139;SDS011;5624;49.388;11.350;2022-07-23T02:20:27;9.32;;;8.40;;
11139;SDS011;5624;49.388;11.350;2022-07-23T02:22:52;9.88;;;8.88;;
11139;SDS011;5624;49.388;11.350;2022-07-23T02:25:18;13.02;;;8.85;;
11139;SDS011;5624;49.388;11.350;2022-07-23T02:27:43;12.60;;;9.15;;
11139;SDS011;5624;49.388;11.350;2022-07-23T02:30:09;9.60;;;8.60;;
11139;SDS011;5624;49.388;11.350;2022-07-23T02:32:36;12.95;;;9.32;;
11139;SDS011;5624;49.388;11.350;2022-07-23T02:35:02;10.07;;;8.77;;
11139;SDS011;5624;49.388;11.350;2022-07-23T02:37:29;10.43;;;9.32;;
11139;SDS011;5624;49.388;11.350;2022-07-23T02:39:55;13.30;;;9.40;;
11139;SDS011;5624;49.388;11.350;2022-07-23T02:42:21;10.18;;;9.18;;
11139;SDS011;5624;49.388;11.350;2022-07-23T02:44:48;11.27;;;9.05;;
11139;SDS011;5624;49.388;11.350;2022-07-23T02:47:15;10.05;;;9.10;;
11139;SDS011;5624;49.388;11.350;2022-07-23T02:49:40;10.43;;;8.73;;
11139;SDS011;5624;49.388;11.350;2022-07-23T02:52:06;10.40;;;9.23;;
11139;SDS011;5624;49.388;11.350;2022-07-23T02:54:31;11.65;;;10.15;;
11139;SDS011;5624;49.388;11.350;2022-07-23T02:56:57;9.95;;;8.40;;
11139;SDS011;5624;49.388;11.350;2022-07-23T02:59:23;13.15;;;9.88;;
11139;SDS011;5624;49.388;11.350;2022-07-23T03:01:48;9.88;;;8.88;;
11139;SDS011;5624;49.388;11.350;2022-07-23T03:04:14;10.43;;;9.30;;
11139;SDS011;5624;49.388;11.350;2022-07-23T03:06:39;10.20;;;9.10;;
11139;SDS011;5624;49.388;11.350;2022-07-23T03:09:05;10.05;;;9.05;;
11139;SDS011;5624;49.388;11.350;2022-07-23T03:11:31;10.77;;;8.82;;
11139;SDS011;5624;49.388;11.350;2022-07-23T03:13:57;10.07;;;8.75;;
11139;SDS011;5624;49.388;11.350;2022-07-23T03:16:22;14.13;;;9.15;;
11139;SDS011;5624;49.388;11.350;2022-07-23T03:18:48;10.18;;;8.40;;
11139;SDS011;5624;49.388;11.350;2022-07-23T03:21:14;10.38;;;8.73;;
11139;SDS011;5624;49.388;11.350;2022-07-23T03:23:40;10.57;;;8.38;;
11139;SDS011;5624;49.388;11.350;2022-07-23T03:26:05;13.80;;;8.60;;
11139;SDS011;5624;49.388;11.350;2022-07-23T03:28:31;10.32;;;9.05;;
11139;SDS011;5624;49.388;11.350;2022-07-23T03:30:57;10.10;;;9.02;;
11139;SDS011;5624;49.388;11.350;2022-07-23T03:33:23;11.00;;;8.55;;
11139;SDS011;5624;49.388;11.350;2022-07-23T03:35:49;11.27;;;8.45;;
11139;SDS011;5624;49.388;11.350;2022-07-23T03:38:15;9.75;;;8.85;;
11139;SDS011;5624;49.388;11.350;2022-07-23T03:40:41;10.25;;;8.45;;
11139;SDS011;5624;49.388;11.350;2022-07-23T03:43:07;10.10;;;9.02;;
11139;SDS011;5624;49.388;11.350;2022-07-23T03:45:33;10.80;;;8.75;;
11139;SDS011;5624;49.388;11.350;2022-07-23T03:47:59;10.00;;;8.50;;
11139;SDS011;5624;49.388;11.350;2022-07-23T03:50:25;9.52;;;8.23;;
11139;SDS011;5624;49.388;11.350;2022-07-23T03:52:51;10.43;;;8.82;;
11139;SDS011;5624;49.388;11.350;2022-07-23T03:55:17;11.43;;;9.27;;
11139;SDS011;5624;49.388;11.350;2022-07-23T03:57:42;9.75;;;8.40;;
11139;SDS011;5624;49.388;11.350;2022-07-23T04:00:09;9.80;;;8.85;;
11139;SDS011;5624;49.388;11.350;2022-07-23T04:02:36;9.50;;;8.25;;
11139;SDS011;5624;49.388;11.350;2022-07-23T04:05:03;9.75;;;7.93;;
11139;SDS011;5624;49.388;11.350;2022-07-23T04:07:29;10.27;;;7.38;;
11139;SDS011;5624;49.388;11.350;2022-07-23T04:09:55;8.82;;;7.95;;
11139;SDS011;5624;49.388;11.350;2022-07-23T04:12:21;9.35;;;7.45;;
11139;SDS011;5624;49.388;11.350;2022-07-23T04:14:47;8.18;;;7.38;;
11139;SDS011;5624;49.388;11.350;2022-07-23T04:17:13;8.07;;;6.43;;
11139;SDS011;5624;49.388;11.350;2022-07-23T04:19:39;10.43;;;6.63;;
11139;SDS011;5624;49.388;11.350;2022-07-23T04:22:09;7.85;;;6.45;;
11139;SDS011;5624;49.388;11.350;2022-07-23T04:24:36;7.88;;;6.40;;
11139;SDS011;5624;49.388;11.350;2022-07-23T04:27:02;8.25;;;6.03;;
11139;SDS011;5624;49.388;11.350;2022-07-23T04:29:28;7.47;;;6.18;;
11139;SDS011;5624;49.388;11.350;2022-07-23T04:31:54;8.68;;;5.72;;
11139;SDS011;5624;49.388;11.350;2022-07-23T04:34:20;7.97;;;5.60;;
11139;SDS011;5624;49.388;11.350;2022-07-23T04:36:47;7.00;;;4.97;;
11139;SDS011;5624;49.388;11.350;2022-07-23T04:39:14;9.45;;;4.88;;
11139;SDS011;5624;49.388;11.350;2022-07-23T04:41:40;5.90;;;5.28;;
11139;SDS011;5624;49.388;11.350;2022-07-23T04:44:06;7.18;;;5.45;;
11139;SDS011;5624;49.388;11.350;2022-07-23T04:46:31;5.75;;;5.00;;
11139;SDS011;5624;49.388;11.350;2022-07-23T04:48:57;5.72;;;4.53;;
11139;SDS011;5624;49.388;11.350;2022-07-23T04:51:23;7.03;;;4.75;;
11139;SDS011;5624;49.388;11.350;2022-07-23T04:53:49;7.38;;;4.88;;
11139;SDS011;5624;49.388;11.350;2022-07-23T04:56:14;5.50;;;4.45;;
11139;SDS011;5624;49.388;11.350;2022-07-23T04:58:40;7.65;;;4.57;;
11139;SDS011;5624;49.388;11.350;2022-07-23T05:01:06;7.07;;;4.90;;
11139;SDS011;5624;49.388;11.350;2022-07-23T05:03:32;7.20;;;4.53;;
11139;SDS011;5624;49.388;11.350;2022-07-23T05:05:58;5.60;;;4.72;;
11139;SDS011;5624;49.388;11.350;2022-07-23T05:08:23;7.47;;;4.78;;
11139;SDS011;5624;49.388;11.350;2022-07-23T05:10:49;5.47;;;4.40;;
11139;SDS011;5624;49.388;11.350;2022-07-23T05:13:15;7.13;;;4.70;;
11139;SDS011;5624;49.388;11.350;2022-07-23T05:15:42;5.53;;;4.30;;
11139;SDS011;5624;49.388;11.350;2022-07-23T05:18:08;6.35;;;4.63;;
11139;SDS011;5624;49.388;11.350;2022-07-23T05:20:34;6.20;;;4.60;;
11139;SDS011;5624;49.388;11.350;2022-07-23T05:22:59;6.72;;;4.55;;
11139;SDS011;5624;49.388;11.350;2022-07-23T05:25:25;5.30;;;4.15;;
11139;SDS011;5624;49.388;11.350;2022-07-23T05:27:51;5.43;;;4.50;;
11139;SDS011;5624;49.388;11.350;2022-07-23T05:30:17;6.32;;;4.43;;
11139;SDS011;5624;49.388;11.350;2022-07-23T05:32:43;7.13;;;4.35;;
11139;SDS011;5624;49.388;11.350;2022-07-23T05:35:08;7.10;;;4.95;;
11139;SDS011;5624;49.388;11.350;2022-07-23T05:37:34;5.45;;;4.90;;
11139;SDS011;5624;49.388;11.350;2022-07-23T05:40:01;5.60;;;4.38;;
11139;SDS011;5624;49.388;11.350;2022-07-23T05:42:28;4.43;;;4.03;;
11139;SDS011;5624;49.388;11.350;2022-07-23T05:44:54;5.93;;;4.88;;
11139;SDS011;5624;49.388;11.350;2022-07-23T05:47:20;5.78;;;4.25;;
11139;SDS011;5624;49.388;11.350;2022-07-23T05:49:45;5.45;;;4.07;;
11139;SDS011;5624;49.388;11.350;2022-07-23T05:52:11;5.28;;;4.40;;
11139;SDS011;5624;49.388;11.350;2022-07-23T05:54:37;5.47;;;3.80;;
11139;SDS011;5624;49.388;11.350;2022-07-23T05:57:03;4.38;;;3.92;;
11139;SDS011;5624;49.388;11.350;2022-07-23T05:59:29;4.50;;;4.10;;
11139;SDS011;5624;49.388;11.350;2022-07-23T06:01:55;4.90;;;3.95;;
11139;SDS011;5624;49.388;11.350;2022-07-23T06:04:21;5.10;;;4.15;;
11139;SDS011;5624;49.388;11.350;2022-07-23T06:06:47;6.10;;;4.03;;
11139;SDS011;5624;49.388;11.350;2022-07-23T06:09:12;5.43;;;4.22;;
11139;SDS011;5624;49.388;11.350;2022-07-23T06:11:39;5.40;;;4.57;;
11139;SDS011;5624;49.388;11.350;2022-07-23T06:14:05;5.43;;;4.10;;
11139;SDS011;5624;49.388;11.350;2022-07-23T06:16:31;5.20;;;4.50;;
11139;SDS011;5624;49.388;11.350;2022-07-23T06:18:57;4.80;;;4.30;;
11139;SDS011;5624;49.388;11.350;2022-07-23T06:21:23;4.32;;;3.65;;
11139;SDS011;5624;49.388;11.350;2022-07-23T06:23:48;5.70;;;4.03;;
11139;SDS011;5624;49.388;11.350;2022-07-23T06:26:14;5.88;;;3.90;;
11139;SDS011;5624;49.388;11.350;2022-07-23T06:28:40;4.22;;;3.83;;
11139;SDS011;5624;49.388;11.350;2022-07-23T06:31:05;4.22;;;3.83;;
11139;SDS011;5624;49.388;11.350;2022-07-23T06:33:31;6.35;;;4.03;;
11139;SDS011;5624;49.388;11.350;2022-07-23T06:35:57;4.30;;;3.90;;
11139;SDS011;5624;49.388;11.350;2022-07-23T06:38:23;4.13;;;3.72;;
11139;SDS011;5624;49.388;11.350;2022-07-23T06:40:48;5.78;;;4.00;;
11139;SDS011;5624;49.388;11.350;2022-07-23T06:43:14;5.65;;;4.30;;
11139;SDS011;5624;49.388;11.350;2022-07-23T06:45:40;6.28;;;3.80;;
11139;SDS011;5624;49.388;11.350;2022-07-23T06:48:05;3.85;;;3.38;;
11139;SDS011;5624;49.388;11.350;2022-07-23T06:50:31;5.57;;;4.32;;
11139;SDS011;5624;49.388;11.350;2022-07-23T06:52:57;6.78;;;4.40;;
11139;SDS011;5624;49.388;11.350;2022-07-23T06:55:23;6.25;;;4.20;;
11139;SDS011;5624;49.388;11.350;2022-07-23T06:57:49;4.93;;;3.90;;
11139;SDS011;5624;49.388;11.350;2022-07-23T07:00:14;7.18;;;4.85;;
11139;SDS011;5624;49.388;11.350;2022-07-23T07:02:40;4.32;;;3.67;;
11139;SDS011;5624;49.388;11.350;2022-07-23T07:05:06;4.22;;;3.83;;
11139;SDS011;5624;49.388;11.350;2022-07-23T07:07:33;4.30;;;3.90;;
11139;SDS011;5624;49.388;11.350;2022-07-23T07:09:59;5.95;;;4.07;;
11139;SDS011;5624;49.388;11.350;2022-07-23T07:12:25;8.80;;;4.68;;
11139;SDS011;5624;49.388;11.350;2022-07-23T07:14:50;7.22;;;4.15;;
11139;SDS011;5624;49.388;11.350;2022-07-23T07:17:16;4.35;;;3.92;;
11139;SDS011;5624;49.388;11.350;2022-07-23T07:19:42;4.68;;;4.18;;
11139;SDS011;5624;49.388;11.350;2022-07-23T07:22:08;7.15;;;4.85;;
11139;SDS011;5624;49.388;11.350;2022-07-23T07:24:33;5.72;;;4.20;;
11139;SDS011;5624;49.388;11.350;2022-07-23T07:26:59;4.95;;;4.20;;
11139;SDS011;5624;49.388;11.350;2022-07-23T07:29:25;5.93;;;4.20;;
11139;SDS011;5624;49.388;11.350;2022-07-23T07:31:52;6.45;;;4.93;;
11139;SDS011;5624;49.388;11.350;2022-07-23T07:34:17;6.13;;;4.43;;
11139;SDS011;5624;49.388;11.350;2022-07-23T07:36:43;6.50;;;4.65;;
11139;SDS011;5624;49.388;11.350;2022-07-23T07:39:09;6.57;;;4.93;;
11139;SDS011;5624;49.388;11.350;2022-07-23T07:41:35;7.47;;;5.13;;
11139;SDS011;5624;49.388;11.350;2022-07-23T07:44:01;5.38;;;4.20;;
11139;SDS011;5624;49.388;11.350;2022-07-23T07:46:27;5.45;;;4.95;;
11139;SDS011;5624;49.388;11.350;2022-07-23T07:48:53;5.15;;;4.65;;
11139;SDS011;5624;49.388;11.350;2022-07-23T07:51:20;8.55;;;5.25;;
11139;SDS011;5624;49.388;11.350;2022-07-23T07:53:45;6.45;;;4.90;;
11139;SDS011;5624;49.388;11.350;2022-07-23T07:56:11;7.07;;;5.90;;
11139;SDS011;5624;49.388;11.350;2022-07-23T07:58:37;7.85;;;5.38;;
11139;SDS011;5624;49.388;11.350;2022-07-23T08:01:03;6.70;;;5.97;;
11139;SDS011;5624;49.388;11.350;2022-07-23T08:03:29;7.32;;;5.63;;
11139;SDS011;5624;49.388;11.350;2022-07-23T08:05:55;7.70;;;5.78;;
11139;SDS011;5624;49.388;11.350;2022-07-23T08:08:20;6.53;;;5.38;;
11139;SDS011;5624;49.388;11.350;2022-07-23T08:10:46;8.32;;;5.50;;
11139;SDS011;5624;49.388;11.350;2022-07-23T08:13:13;6.30;;;5.40;;
11139;SDS011;5624;49.388;11.350;2022-07-23T08:15:39;7.97;;;5.78;;
11139;SDS011;5624;49.388;11.350;2022-07-23T08:18:06;7.50;;;5.75;;
11139;SDS011;5624;49.388;11.350;2022-07-23T08:20:31;7.05;;;5.60;;
11139;SDS011;5624;49.388;11.350;2022-07-23T08:23:03;6.80;;;5.57;;
11139;SDS011;5624;49.388;11.350;2022-07-23T08:25:31;7.50;;;5.68;;
11139;SDS011;5624;49.388;11.350;2022-07-23T08:28:06;6.72;;;5.88;;
11139;SDS011;5624;49.388;11.350;2022-07-23T08:30:33;7.68;;;5.07;;
11139;SDS011;5624;49.388;11.350;2022-07-23T08:33:10;5.85;;;5.05;;
11139;SDS011;5624;49.388;11.350;2022-07-23T08:35:45;6.25;;;5.57;;
11139;SDS011;5624;49.388;11.350;2022-07-23T08:38:14;6.20;;;5.60;;
11139;SDS011;5624;49.388;11.350;2022-07-23T08:40:43;5.25;;;4.75;;
11139;SDS011;5624;49.388;11.350;2022-07-23T08:43:10;6.70;;;4.85;;
11139;SDS011;5624;49.388;11.350;2022-07-23T08:45:38;6.05;;;5.30;;
11139;SDS011;5624;49.388;11.350;2022-07-23T08:48:14;5.00;;;4.53;;
11139;SDS011;5624;49.388;11.350;2022-07-23T08:50:45;6.00;;;4.47;;
11139;SDS011;5624;49.388;11.350;2022-07-23T08:53:13;5.18;;;4.68;;
11139;SDS011;5624;49.388;11.350;2022-07-23T08:55:40;4.95;;;4.40;;
11139;SDS011;5624;49.388;11.350;2022-07-23T08:58:08;5.63;;;4.68;;
11139;SDS011;5624;49.388;11.350;2022-07-23T09:00:33;8.07;;;4.75;;
11139;SDS011;5624;49.388;11.350;2022-07-23T09:02:59;6.32;;;4.32;;
11139;SDS011;5624;49.388;11.350;2022-07-23T09:05:25;5.97;;;4.60;;
11139;SDS011;5624;49.388;11.350;2022-07-23T09:08:11;6.00;;;4.65;;
11139;SDS011;5624;49.388;11.350;2022-07-23T09:13:25;5.38;;;4.88;;
11139;SDS011;5624;49.388;11.350;2022-07-23T09:15:52;5.72;;;4.72;;
11139;SDS011;5624;49.388;11.350;2022-07-23T09:18:19;5.22;;;4.72;;
11139;SDS011;5624;49.388;11.350;2022-07-23T09:29:19;6.53;;;5.13;;
11139;SDS011;5624;49.388;11.350;2022-07-23T09:31:53;6.70;;;5.15;;
11139;SDS011;5624;49.388;11.350;2022-07-23T09:34:23;6.38;;;5.72;;
11139;SDS011;5624;49.388;11.350;2022-07-23T09:36:51;6.95;;;5.70;;
11139;SDS011;5624;49.388;11.350;2022-07-23T09:39:30;7.68;;;5.88;;
11139;SDS011;5624;49.388;11.350;2022-07-23T09:41:59;8.52;;;5.88;;
11139;SDS011;5624;49.388;11.350;2022-07-23T09:44:46;6.93;;;6.22;;
11139;SDS011;5624;49.388;11.350;2022-07-23T09:47:13;6.95;;;6.07;;
11139;SDS011;5624;49.388;11.350;2022-07-23T09:49:40;7.60;;;6.78;;
11139;SDS011;5624;49.388;11.350;2022-07-23T09:52:06;7.47;;;6.50;;
11139;SDS011;5624;49.388;11.350;2022-07-23T09:54:38;6.88;;;5.78;;
11139;SDS011;5624;49.388;11.350;2022-07-23T09:57:09;6.55;;;5.35;;
11139;SDS011;5624;49.388;11.350;2022-07-23T09:59:43;5.78;;;4.63;;
11139;SDS011;5624;49.388;11.350;2022-07-23T10:02:11;6.55;;;4.75;;
11139;SDS011;5624;49.388;11.350;2022-07-23T10:04:39;8.38;;;6.20;;
11139;SDS011;5624;49.388;11.350;2022-07-23T10:07:08;7.72;;;5.20;;
11139;SDS011;5624;49.388;11.350;2022-07-23T10:09:38;5.45;;;4.88;;
11139;SDS011;5624;49.388;11.350;2022-07-23T10:12:12;7.63;;;6.80;;
11139;SDS011;5624;49.388;11.350;2022-07-23T10:14:51;7.28;;;6.05;;
11139;SDS011;5624;49.388;11.350;2022-07-23T10:17:17;6.50;;;5.35;;
11139;SDS011;5624;49.388;11.350;2022-07-23T10:19:43;7.10;;;5.03;;
11139;SDS011;5624;49.388;11.350;2022-07-23T10:22:11;7.18;;;5.30;;
11139;SDS011;5624;49.388;11.350;2022-07-23T10:36:11;6.30;;;5.20;;
11139;SDS011;5624;49.388;11.350;2022-07-23T10:38:54;7.22;;;5.55;;
11139;SDS011;5624;49.388;11.350;2022-07-23T10:41:36;8.00;;;5.70;;
11139;SDS011;5624;49.388;11.350;2022-07-23T10:46:34;7.75;;;5.85;;
11139;SDS011;5624;49.388;11.350;2022-07-23T10:49:45;7.35;;;6.00;;
11139;SDS011;5624;49.388;11.350;2022-07-23T10:57:17;6.38;;;5.35;;
11139;SDS011;5624;49.388;11.350;2022-07-23T11:02:45;8.45;;;5.82;;
11139;SDS011;5624;49.388;11.350;2022-07-23T11:05:19;6.97;;;5.40;;
11139;SDS011;5624;49.388;11.350;2022-07-23T11:10:33;6.35;;;5.18;;
11139;SDS011;5624;49.388;11.350;2022-07-23T11:24:10;6.05;;;5.45;;
11139;SDS011;5624;49.388;11.350;2022-07-23T11:34:31;5.75;;;5.20;;
11139;SDS011;5624;49.388;11.350;2022-07-23T11:37:04;7.45;;;6.00;;
11139;SDS011;5624;49.388;11.350;2022-07-23T11:39:32;7.80;;;5.65;;
11139;SDS011;5624;49.388;11.350;2022-07-23T11:41:58;7.35;;;5.22;;
11139;SDS011;5624;49.388;11.350;2022-07-23T11:44:29;5.40;;;4.80;;
11139;SDS011;5624;49.388;11.350;2022-07-23T11:49:26;5.88;;;4.97;;
11139;SDS011;5624;49.388;11.350;2022-07-23T11:54:32;5.97;;;4.80;;
11139;SDS011;5624;49.388;11.350;2022-07-23T11:57:00;4.55;;;3.95;;
11139;SDS011;5624;49.388;11.350;2022-07-23T11:59:27;5.35;;;3.88;;
11139;SDS011;5624;49.388;11.350;2022-07-23T12:01:57;5.03;;;4.15;;
11139;SDS011;5624;49.388;11.350;2022-07-23T12:04:42;4.53;;;4.00;;
11139;SDS011;5624;49.388;11.350;2022-07-23T12:07:27;4.50;;;3.88;;
11139;SDS011;5624;49.388;11.350;2022-07-23T12:09:52;4.00;;;3.45;;
11139;SDS011;5624;49.388;11.350;2022-07-23T12:12:19;4.35;;;3.85;;
11139;SDS011;5624;49.388;11.350;2022-07-23T12:14:48;4.43;;;4.03;;
11139;SDS011;5624;49.388;11.350;2022-07-23T12:17:20;5.30;;;4.43;;
11139;SDS011;5624;49.388;11.350;2022-07-23T12:19:46;4.38;;;3.97;;
11139;SDS011;5624;49.388;11.350;2022-07-23T12:22:13;4.43;;;3.85;;
11139;SDS011;5624;49.388;11.350;2022-07-23T12:24:58;4.63;;;3.95;;
11139;SDS011;5624;49.388;11.350;2022-07-23T12:27:25;5.45;;;4.80;;
11139;SDS011;5624;49.388;11.350;2022-07-23T12:29:52;6.07;;;4.15;;
11139;SDS011;5624;49.388;11.350;2022-07-23T12:32:28;4.30;;;3.90;;
11139;SDS011;5624;49.388;11.350;2022-07-23T12:35:07;5.15;;;4.00;;
11139;SDS011;5624;49.388;11.350;2022-07-23T12:37:38;5.75;;;4.28;;
11139;SDS011;5624;49.388;11.350;2022-07-23T12:42:58;4.65;;;4.18;;
11139;SDS011;5624;49.388;11.350;2022-07-23T12:45:41;5.65;;;4.03;;
11139;SDS011;5624;49.388;11.350;2022-07-23T12:48:16;6.40;;;4.25;;
11139;SDS011;5624;49.388;11.350;2022-07-23T12:50:43;3.97;;;3.58;;
11139;SDS011;5624;49.388;11.350;2022-07-23T12:55:37;4.57;;;4.10;;
11139;SDS011;5624;49.388;11.350;2022-07-23T12:58:04;5.35;;;4.05;;
11139;SDS011;5624;49.388;11.350;2022-07-23T13:01:00;4.80;;;4.30;;
11139;SDS011;5624;49.388;11.350;2022-07-23T13:03:29;5.15;;;4.45;;
11139;SDS011;5624;49.388;11.350;2022-07-23T13:06:02;4.32;;;3.92;;
11139;SDS011;5624;49.388;11.350;2022-07-23T13:08:30;4.45;;;4.05;;
11139;SDS011;5624;49.388;11.350;2022-07-23T13:10:58;4.60;;;4.20;;
11139;SDS011;5624;49.388;11.350;2022-07-23T13:13:24;6.00;;;4.13;;
11139;SDS011;5624;49.388;11.350;2022-07-23T13:15:51;5.65;;;4.60;;
11139;SDS011;5624;49.388;11.350;2022-07-23T13:18:18;5.07;;;4.43;;
11139;SDS011;5624;49.388;11.350;2022-07-23T13:20:44;4.40;;;4.00;;
11139;SDS011;5624;49.388;11.350;2022-07-23T13:23:12;7.10;;;4.65;;
11139;SDS011;5624;49.388;11.350;2022-07-23T13:25:38;4.47;;;4.00;;
11139;SDS011;5624;49.388;11.350;2022-07-23T13:28:04;4.38;;;3.80;;
11139;SDS011;5624;49.388;11.350;2022-07-23T13:30:30;4.43;;;4.03;;
11139;SDS011;5624;49.388;11.350;2022-07-23T13:32:56;4.90;;;4.22;;
11139;SDS011;5624;49.388;11.350;2022-07-23T13:35:22;4.90;;;4.35;;
11139;SDS011;5624;49.388;11.350;2022-07-23T13:37:49;4.72;;;4.15;;
11139;SDS011;5624;49.388;11.350;2022-07-23T13:40:15;5.18;;;3.75;;
11139;SDS011;5624;49.388;11.350;2022-07-23T13:42:41;4.05;;;3.65;;
11139;SDS011;5624;49.388;11.350;2022-07-23T13:45:07;4.75;;;4.00;;
11139;SDS011;5624;49.388;11.350;2022-07-23T13:47:33;6.57;;;4.72;;
11139;SDS011;5624;49.388;11.350;2022-07-23T13:49:59;5.05;;;4.45;;
11139;SDS011;5624;49.388;11.350;2022-07-23T13:52:25;5.50;;;4.63;;
11139;SDS011;5624;49.388;11.350;2022-07-23T13:54:51;5.18;;;4.60;;
11139;SDS011;5624;49.388;11.350;2022-07-23T13:57:17;5.43;;;4.82;;
11139;SDS011;5624;49.388;11.350;2022-07-23T13:59:43;5.88;;;4.60;;
11139;SDS011;5624;49.388;11.350;2022-07-23T14:02:09;5.15;;;4.65;;
11139;SDS011;5624;49.388;11.350;2022-07-23T14:04:39;5.65;;;4.63;;
11139;SDS011;5624;49.388;11.350;2022-07-23T14:07:05;6.38;;;5.18;;
11139;SDS011;5624;49.388;11.350;2022-07-23T14:09:30;5.47;;;4.50;;
11139;SDS011;5624;49.388;11.350;2022-07-23T14:11:59;5.82;;;4.90;;
11139;SDS011;5624;49.388;11.350;2022-07-23T14:14:24;5.22;;;4.47;;
11139;SDS011;5624;49.388;11.350;2022-07-23T14:16:50;5.35;;;4.40;;
11139;SDS011;5624;49.388;11.350;2022-07-23T14:19:16;6.05;;;4.82;;
11139;SDS011;5624;49.388;11.350;2022-07-23T14:21:42;5.50;;;4.72;;
11139;SDS011;5624;49.388;11.350;2022-07-23T14:24:08;6.93;;;5.30;;
11139;SDS011;5624;49.388;11.350;2022-07-23T14:26:34;5.75;;;5.10;;
11139;SDS011;5624;49.388;11.350;2022-07-23T14:29:00;5.50;;;4.95;;
11139;SDS011;5624;49.388;11.350;2022-07-23T14:31:26;6.22;;;5.32;;
11139;SDS011;5624;49.388;11.350;2022-07-23T14:33:52;5.18;;;4.68;;
11139;SDS011;5624;49.388;11.350;2022-07-23T14:36:18;5.85;;;5.30;;
11139;SDS011;5624;49.388;11.350;2022-07-23T14:38:44;6.55;;;4.97;;
11139;SDS011;5624;49.388;11.350;2022-07-23T14:41:09;5.82;;;4.90;;
11139;SDS011;5624;49.388;11.350;2022-07-23T14:43:36;5.43;;;4.93;;
11139;SDS011;5624;49.388;11.350;2022-07-23T14:46:02;5.70;;;5.07;;
11139;SDS011;5624;49.388;11.350;2022-07-23T14:48:28;6.22;;;5.63;;
11139;SDS011;5624;49.388;11.350;2022-07-23T14:50:54;7.43;;;5.50;;
11139;SDS011;5624;49.388;11.350;2022-07-23T14:53:19;7.10;;;5.57;;
11139;SDS011;5624;49.388;11.350;2022-07-23T14:55:45;5.40;;;4.80;;
11139;SDS011;5624;49.388;11.350;2022-07-23T14:58:11;6.40;;;5.38;;
11139;SDS011;5624;49.388;11.350;2022-07-23T15:00:37;6.03;;;5.40;;
11139;SDS011;5624;49.388;11.350;2022-07-23T15:03:03;6.15;;;5.55;;
11139;SDS011;5624;49.388;11.350;2022-07-23T15:05:29;6.50;;;5.82;;
11139;SDS011;5624;49.388;11.350;2022-07-23T15:07:55;7.28;;;6.00;;
11139;SDS011;5624;49.388;11.350;2022-07-23T15:10:21;5.85;;;5.35;;
11139;SDS011;5624;49.388;11.350;2022-07-23T15:12:47;6.45;;;5.65;;
11139;SDS011;5624;49.388;11.350;2022-07-23T15:15:13;5.93;;;5.32;;
11139;SDS011;5624;49.388;11.350;2022-07-23T15:17:39;6.30;;;5.70;;
11139;SDS011;5624;49.388;11.350;2022-07-23T15:20:05;6.78;;;5.43;;
11139;SDS011;5624;49.388;11.350;2022-07-23T15:22:32;6.25;;;5.65;;
11139;SDS011;5624;49.388;11.350;2022-07-23T15:24:57;6.30;;;5.70;;
11139;SDS011;5624;49.388;11.350;2022-07-23T15:27:24;6.18;;;5.57;;
11139;SDS011;5624;49.388;11.350;2022-07-23T15:29:50;7.47;;;5.93;;
11139;SDS011;5624;49.388;11.350;2022-07-23T15:32:15;6.53;;;5.93;;
11139;SDS011;5624;49.388;11.350;2022-07-23T15:34:41;6.00;;;5.40;;
11139;SDS011;5624;49.388;11.350;2022-07-23T15:37:07;6.65;;;5.60;;
11139;SDS011;5624;49.388;11.350;2022-07-23T15:39:33;6.38;;;5.78;;
11139;SDS011;5624;49.388;11.350;2022-07-23T15:41:59;6.68;;;6.03;;
11139;SDS011;5624;49.388;11.350;2022-07-23T15:44:26;5.88;;;5.38;;
11139;SDS011;5624;49.388;11.350;2022-07-23T15:46:52;6.93;;;5.75;;
11139;SDS011;5624;49.388;11.350;2022-07-23T15:49:18;8.13;;;6.05;;
11139;SDS011;5624;49.388;11.350;2022-07-23T15:51:44;7.78;;;5.85;;